Skip Navigation Links
NOAA logo - Click to go to the NOAA homepage
NOAA's National Weather Service
Alaska Aviation Weather Unit
  NWS logo - Click to go to the NWS homepage
Left Navbar Graphic     17 AKDT = 01 GMT

   
NOAA is celebrating 200 years of science, service, and stewardship. Visit the NOAA 200th celebration Web site to learn more.
USA.gov is the U.S. Government's official Web portal to all Federal, state and local government Web resources and services.
Facebook
NWS on Facebook

Important Change Regarding the AAWU Web Presence

 

Over the last several months, the AAWU has been working to navigate its webpages to a nationally supported server. Security, as well as other needs, have necessitated the change.  In the process, we have made an effort to enhance the functionality of our website, as well as some of our products. As of June 27, 2017, aawu.arh.noaa.gov will be discontinued. The new AAWU web address is weather.gov/aawu. It is now live and will run in-parallel with the old site until it is discontinued. Please send any feedback or questions regarding the new webpages to nws.ar.aawu.webauthors@noaa.gov.  Thank you for your patience during this time of transition.
AAWU Home :: Display TAF Add Bookmark
TAF CYPR 260038Z 2601/2613 VRB03KT P6SM OVC030 TEMPO 2601/2608 5SM
     -DZ BR OVC020
    FM260800 VRB03KT P6SM SCT008 OVC020 TEMPO 2608/2613 3SM -DZ BR
     BKN008 OVC020
    RMK FCST BASED ON AUTO OBS. NXT FCST BY 260700Z=

METAR CYPR 251900Z AUTO 26003KT 210V310 9SM OVC043 14/10 A3001 RMK SLP165= METAR CYPR 252000Z AUTO 29009KT 260V330 9SM FEW045 15/10 A3002 RMK SLP167= METAR CYPR 252100Z AUTO 24008KT 210V340 9SM OVC027 15/10 A3002 RMK SLP167= METAR CYPR 252200Z AUTO 26004KT 240V310 9SM OVC025 13/09 A3002 RMK SLP169= METAR CYPR 252300Z AUTO 30003KT 250V320 9SM OVC029 13/09 A3003 RMK SLP171= METAR CYPR 260000Z AUTO 31003KT 240V330 9SM OVC033 13/09 A3003 RMK SLP170= METAR CYPR 260100Z AUTO 24004KT 210V290 9SM SCT033 OVC045 14/10 A3001 RMK SLP165=
 Alaska TAF Map

NOAA's National Weather Service
Alaska Aviation Weather Unit
6930 Sand Lake Road
Anchorage, AK 99502-1845
Disclaimer
Credits
Glossary
Privacy Policy
About Us
Career Opportunities
Contact AAWU Internet Services Site last modified: April, 17th 2012